sensor_id;sensor_type;location;lat;lon;timestamp;P1;durP1;ratioP1;P2;durP2;ratioP2
51558;SDS011;61650;48.882;2.092;2023-03-31T00:01:46;5.30;;;1.77;;
51558;SDS011;61650;48.882;2.092;2023-03-31T00:04:12;3.67;;;1.60;;
51558;SDS011;61650;48.882;2.092;2023-03-31T00:06:38;4.13;;;1.57;;
51558;SDS011;61650;48.882;2.092;2023-03-31T00:09:09;4.93;;;2.20;;
51558;SDS011;61650;48.882;2.092;2023-03-31T00:11:37;5.30;;;1.50;;
51558;SDS011;61650;48.882;2.092;2023-03-31T00:14:03;9.17;;;2.13;;
51558;SDS011;61650;48.882;2.092;2023-03-31T00:16:33;5.90;;;2.00;;
51558;SDS011;61650;48.882;2.092;2023-03-31T00:19:00;7.63;;;1.93;;
51558;SDS011;61650;48.882;2.092;2023-03-31T00:21:26;8.40;;;1.80;;
51558;SDS011;61650;48.882;2.092;2023-03-31T00:24:05;3.63;;;1.60;;
51558;SDS011;61650;48.882;2.092;2023-03-31T00:26:32;8.10;;;2.10;;
51558;SDS011;61650;48.882;2.092;2023-03-31T00:28:59;5.73;;;1.53;;
51558;SDS011;61650;48.882;2.092;2023-03-31T00:31:26;5.97;;;1.70;;
51558;SDS011;61650;48.882;2.092;2023-03-31T00:33:52;3.87;;;1.90;;
51558;SDS011;61650;48.882;2.092;2023-03-31T00:36:18;6.67;;;1.80;;
51558;SDS011;61650;48.882;2.092;2023-03-31T00:38:54;8.67;;;2.43;;
51558;SDS011;61650;48.882;2.092;2023-03-31T00:41:23;7.13;;;1.50;;
51558;SDS011;61650;48.882;2.092;2023-03-31T00:44:00;5.93;;;1.77;;
51558;SDS011;61650;48.882;2.092;2023-03-31T00:46:39;6.13;;;1.97;;
51558;SDS011;61650;48.882;2.092;2023-03-31T00:49:35;6.03;;;1.40;;
51558;SDS011;61650;48.882;2.092;2023-03-31T00:52:14;5.20;;;1.70;;
51558;SDS011;61650;48.882;2.092;2023-03-31T00:54:46;5.33;;;2.00;;
51558;SDS011;61650;48.882;2.092;2023-03-31T00:57:14;5.90;;;1.57;;
51558;SDS011;61650;48.882;2.092;2023-03-31T00:59:48;4.70;;;1.50;;
51558;SDS011;61650;48.882;2.092;2023-03-31T01:02:17;4.87;;;1.87;;
51558;SDS011;61650;48.882;2.092;2023-03-31T01:04:49;6.60;;;1.30;;
51558;SDS011;61650;48.882;2.092;2023-03-31T01:07:29;4.20;;;1.63;;
51558;SDS011;61650;48.882;2.092;2023-03-31T01:10:02;2.33;;;1.17;;
51558;SDS011;61650;48.882;2.092;2023-03-31T01:12:29;3.33;;;1.10;;
51558;SDS011;61650;48.882;2.092;2023-03-31T01:14:56;3.90;;;1.40;;
51558;SDS011;61650;48.882;2.092;2023-03-31T01:17:22;5.53;;;1.70;;
51558;SDS011;61650;48.882;2.092;2023-03-31T01:41:34;3.13;;;1.20;;
51558;SDS011;61650;48.882;2.092;2023-03-31T01:47:08;4.53;;;1.30;;
51558;SDS011;61650;48.882;2.092;2023-03-31T01:52:31;3.17;;;1.40;;
51558;SDS011;61650;48.882;2.092;2023-03-31T01:55:17;2.20;;;1.40;;
51558;SDS011;61650;48.882;2.092;2023-03-31T02:00:52;3.40;;;2.13;;
51558;SDS011;61650;48.882;2.092;2023-03-31T02:03:27;3.17;;;1.27;;
51558;SDS011;61650;48.882;2.092;2023-03-31T02:06:01;4.60;;;2.13;;
51558;SDS011;61650;48.882;2.092;2023-03-31T02:08:39;4.73;;;1.80;;
51558;SDS011;61650;48.882;2.092;2023-03-31T02:11:09;4.80;;;1.83;;
51558;SDS011;61650;48.882;2.092;2023-03-31T02:13:36;3.03;;;1.87;;
51558;SDS011;61650;48.882;2.092;2023-03-31T02:16:07;4.90;;;1.93;;
51558;SDS011;61650;48.882;2.092;2023-03-31T02:18:38;5.20;;;2.60;;
51558;SDS011;61650;48.882;2.092;2023-03-31T02:21:06;3.50;;;2.20;;
51558;SDS011;61650;48.882;2.092;2023-03-31T02:23:32;3.03;;;1.70;;
51558;SDS011;61650;48.882;2.092;2023-03-31T02:26:04;7.57;;;2.97;;
51558;SDS011;61650;48.882;2.092;2023-03-31T02:28:31;4.63;;;1.87;;
51558;SDS011;61650;48.882;2.092;2023-03-31T02:33:41;3.87;;;1.47;;
51558;SDS011;61650;48.882;2.092;2023-03-31T02:36:07;4.37;;;2.10;;
51558;SDS011;61650;48.882;2.092;2023-03-31T02:38:34;5.73;;;2.03;;
51558;SDS011;61650;48.882;2.092;2023-03-31T02:41:03;8.73;;;2.20;;
51558;SDS011;61650;48.882;2.092;2023-03-31T02:43:29;4.30;;;1.87;;
51558;SDS011;61650;48.882;2.092;2023-03-31T02:45:55;6.40;;;2.03;;
51558;SDS011;61650;48.882;2.092;2023-03-31T02:53:38;4.90;;;2.20;;
51558;SDS011;61650;48.882;2.092;2023-03-31T02:56:29;5.90;;;2.23;;
51558;SDS011;61650;48.882;2.092;2023-03-31T03:04:21;8.27;;;1.77;;
51558;SDS011;61650;48.882;2.092;2023-03-31T03:12:57;7.93;;;2.20;;
51558;SDS011;61650;48.882;2.092;2023-03-31T03:18:51;5.00;;;2.53;;
51558;SDS011;61650;48.882;2.092;2023-03-31T03:21:27;5.40;;;2.23;;
51558;SDS011;61650;48.882;2.092;2023-03-31T03:23:53;5.07;;;2.47;;
51558;SDS011;61650;48.882;2.092;2023-03-31T03:26:19;6.87;;;2.03;;
51558;SDS011;61650;48.882;2.092;2023-03-31T03:28:47;8.13;;;2.53;;
51558;SDS011;61650;48.882;2.092;2023-03-31T03:31:16;9.90;;;2.43;;
51558;SDS011;61650;48.882;2.092;2023-03-31T03:33:43;4.40;;;1.97;;
51558;SDS011;61650;48.882;2.092;2023-03-31T03:36:09;8.33;;;3.00;;
51558;SDS011;61650;48.882;2.092;2023-03-31T03:38:34;7.53;;;2.17;;
51558;SDS011;61650;48.882;2.092;2023-03-31T03:41:00;4.80;;;2.50;;
51558;SDS011;61650;48.882;2.092;2023-03-31T03:43:26;10.13;;;2.47;;
51558;SDS011;61650;48.882;2.092;2023-03-31T03:45:52;3.63;;;2.13;;
51558;SDS011;61650;48.882;2.092;2023-03-31T03:48:17;5.03;;;2.53;;
51558;SDS011;61650;48.882;2.092;2023-03-31T03:50:44;8.13;;;3.13;;
51558;SDS011;61650;48.882;2.092;2023-03-31T03:53:10;4.90;;;2.20;;
51558;SDS011;61650;48.882;2.092;2023-03-31T03:55:36;5.97;;;2.17;;
51558;SDS011;61650;48.882;2.092;2023-03-31T03:58:02;9.40;;;2.47;;
51558;SDS011;61650;48.882;2.092;2023-03-31T04:00:27;6.27;;;3.23;;
51558;SDS011;61650;48.882;2.092;2023-03-31T04:02:53;7.20;;;2.90;;
51558;SDS011;61650;48.882;2.092;2023-03-31T04:05:18;5.33;;;2.33;;
51558;SDS011;61650;48.882;2.092;2023-03-31T04:07:44;9.10;;;3.30;;
51558;SDS011;61650;48.882;2.092;2023-03-31T04:10:10;3.60;;;2.47;;
51558;SDS011;61650;48.882;2.092;2023-03-31T04:12:35;6.70;;;1.90;;
51558;SDS011;61650;48.882;2.092;2023-03-31T04:15:01;7.40;;;2.80;;
51558;SDS011;61650;48.882;2.092;2023-03-31T04:17:27;3.77;;;2.23;;
51558;SDS011;61650;48.882;2.092;2023-03-31T04:20:00;7.40;;;2.10;;
51558;SDS011;61650;48.882;2.092;2023-03-31T04:22:30;8.50;;;2.27;;
51558;SDS011;61650;48.882;2.092;2023-03-31T04:25:02;7.17;;;2.57;;
51558;SDS011;61650;48.882;2.092;2023-03-31T04:27:29;8.83;;;2.60;;
51558;SDS011;61650;48.882;2.092;2023-03-31T04:29:55;8.70;;;2.23;;
51558;SDS011;61650;48.882;2.092;2023-03-31T04:32:21;6.93;;;2.37;;
51558;SDS011;61650;48.882;2.092;2023-03-31T04:34:48;9.40;;;2.43;;
51558;SDS011;61650;48.882;2.092;2023-03-31T04:37:26;12.10;;;2.77;;
51558;SDS011;61650;48.882;2.092;2023-03-31T04:39:58;7.33;;;2.53;;
51558;SDS011;61650;48.882;2.092;2023-03-31T04:42:32;9.83;;;3.73;;
51558;SDS011;61650;48.882;2.092;2023-03-31T04:44:58;6.33;;;2.10;;
51558;SDS011;61650;48.882;2.092;2023-03-31T04:47:23;7.40;;;2.03;;
51558;SDS011;61650;48.882;2.092;2023-03-31T04:49:49;6.60;;;2.70;;
51558;SDS011;61650;48.882;2.092;2023-03-31T04:52:14;10.93;;;2.57;;
51558;SDS011;61650;48.882;2.092;2023-03-31T04:54:40;6.60;;;2.60;;
51558;SDS011;61650;48.882;2.092;2023-03-31T04:57:05;9.43;;;2.60;;
51558;SDS011;61650;48.882;2.092;2023-03-31T04:59:31;7.27;;;2.27;;
51558;SDS011;61650;48.882;2.092;2023-03-31T05:01:56;9.30;;;2.33;;
51558;SDS011;61650;48.882;2.092;2023-03-31T05:04:22;11.93;;;2.60;;
51558;SDS011;61650;48.882;2.092;2023-03-31T05:06:48;10.53;;;2.63;;
51558;SDS011;61650;48.882;2.092;2023-03-31T05:09:14;11.63;;;2.93;;
51558;SDS011;61650;48.882;2.092;2023-03-31T05:11:40;8.43;;;2.87;;
51558;SDS011;61650;48.882;2.092;2023-03-31T05:14:05;9.93;;;3.13;;
51558;SDS011;61650;48.882;2.092;2023-03-31T05:16:31;9.87;;;2.60;;
51558;SDS011;61650;48.882;2.092;2023-03-31T05:18:57;8.10;;;3.20;;
51558;SDS011;61650;48.882;2.092;2023-03-31T05:21:23;8.47;;;1.97;;
51558;SDS011;61650;48.882;2.092;2023-03-31T05:23:50;9.67;;;2.60;;
51558;SDS011;61650;48.882;2.092;2023-03-31T05:26:16;12.87;;;3.10;;
51558;SDS011;61650;48.882;2.092;2023-03-31T05:28:42;8.63;;;2.20;;
51558;SDS011;61650;48.882;2.092;2023-03-31T05:31:11;8.50;;;2.23;;
51558;SDS011;61650;48.882;2.092;2023-03-31T05:33:37;10.70;;;2.80;;
51558;SDS011;61650;48.882;2.092;2023-03-31T05:36:05;11.63;;;3.13;;
51558;SDS011;61650;48.882;2.092;2023-03-31T05:38:32;8.23;;;2.73;;
51558;SDS011;61650;48.882;2.092;2023-03-31T05:40:58;10.07;;;2.50;;
51558;SDS011;61650;48.882;2.092;2023-03-31T05:43:24;7.10;;;3.23;;
51558;SDS011;61650;48.882;2.092;2023-03-31T05:45:49;8.10;;;2.40;;
51558;SDS011;61650;48.882;2.092;2023-03-31T05:48:15;6.70;;;2.67;;
51558;SDS011;61650;48.882;2.092;2023-03-31T05:50:41;8.47;;;2.50;;
51558;SDS011;61650;48.882;2.092;2023-03-31T05:53:07;10.43;;;3.30;;
51558;SDS011;61650;48.882;2.092;2023-03-31T05:55:34;11.90;;;2.80;;
51558;SDS011;61650;48.882;2.092;2023-03-31T05:58:00;10.03;;;2.73;;
51558;SDS011;61650;48.882;2.092;2023-03-31T06:00:26;11.90;;;2.90;;
51558;SDS011;61650;48.882;2.092;2023-03-31T06:02:51;8.67;;;3.07;;
51558;SDS011;61650;48.882;2.092;2023-03-31T06:05:17;8.30;;;2.27;;
51558;SDS011;61650;48.882;2.092;2023-03-31T06:07:43;5.87;;;2.93;;
51558;SDS011;61650;48.882;2.092;2023-03-31T06:10:08;9.23;;;3.23;;
51558;SDS011;61650;48.882;2.092;2023-03-31T06:12:34;11.47;;;2.73;;
51558;SDS011;61650;48.882;2.092;2023-03-31T06:15:00;11.87;;;2.43;;
51558;SDS011;61650;48.882;2.092;2023-03-31T06:17:27;14.03;;;3.40;;
51558;SDS011;61650;48.882;2.092;2023-03-31T06:19:52;10.30;;;2.80;;
51558;SDS011;61650;48.882;2.092;2023-03-31T06:22:18;6.70;;;2.27;;
51558;SDS011;61650;48.882;2.092;2023-03-31T06:24:43;6.50;;;1.93;;
51558;SDS011;61650;48.882;2.092;2023-03-31T06:27:09;10.63;;;3.07;;
51558;SDS011;61650;48.882;2.092;2023-03-31T06:29:34;11.40;;;2.50;;
51558;SDS011;61650;48.882;2.092;2023-03-31T06:32:00;17.97;;;3.20;;
51558;SDS011;61650;48.882;2.092;2023-03-31T06:34:26;6.60;;;1.87;;
51558;SDS011;61650;48.882;2.092;2023-03-31T06:36:51;8.23;;;2.30;;
51558;SDS011;61650;48.882;2.092;2023-03-31T06:39:17;8.30;;;3.17;;
51558;SDS011;61650;48.882;2.092;2023-03-31T06:41:43;10.67;;;2.30;;
51558;SDS011;61650;48.882;2.092;2023-03-31T06:44:09;10.90;;;3.20;;
51558;SDS011;61650;48.882;2.092;2023-03-31T06:46:35;4.20;;;2.03;;
51558;SDS011;61650;48.882;2.092;2023-03-31T06:49:00;8.60;;;2.60;;
51558;SDS011;61650;48.882;2.092;2023-03-31T06:51:26;13.90;;;3.93;;
51558;SDS011;61650;48.882;2.092;2023-03-31T06:53:52;4.37;;;2.30;;
51558;SDS011;61650;48.882;2.092;2023-03-31T06:56:17;13.30;;;4.07;;
51558;SDS011;61650;48.882;2.092;2023-03-31T06:58:43;11.73;;;2.23;;
51558;SDS011;61650;48.882;2.092;2023-03-31T07:01:08;8.23;;;1.93;;
51558;SDS011;61650;48.882;2.092;2023-03-31T07:03:35;5.20;;;1.80;;
51558;SDS011;61650;48.882;2.092;2023-03-31T07:06:01;5.70;;;1.40;;
51558;SDS011;61650;48.882;2.092;2023-03-31T07:08:27;11.10;;;3.77;;
51558;SDS011;61650;48.882;2.092;2023-03-31T07:10:54;8.27;;;2.33;;
51558;SDS011;61650;48.882;2.092;2023-03-31T07:13:21;10.67;;;2.37;;
51558;SDS011;61650;48.882;2.092;2023-03-31T07:15:47;7.57;;;2.20;;
51558;SDS011;61650;48.882;2.092;2023-03-31T07:18:13;7.23;;;1.40;;
51558;SDS011;61650;48.882;2.092;2023-03-31T07:20:40;8.73;;;2.37;;
51558;SDS011;61650;48.882;2.092;2023-03-31T07:23:06;6.50;;;2.63;;
51558;SDS011;61650;48.882;2.092;2023-03-31T07:25:32;5.23;;;1.27;;
51558;SDS011;61650;48.882;2.092;2023-03-31T07:27:59;5.53;;;1.77;;
51558;SDS011;61650;48.882;2.092;2023-03-31T07:30:25;5.30;;;1.47;;
51558;SDS011;61650;48.882;2.092;2023-03-31T07:32:51;6.90;;;1.70;;
51558;SDS011;61650;48.882;2.092;2023-03-31T07:35:18;10.33;;;1.87;;
51558;SDS011;61650;48.882;2.092;2023-03-31T07:37:46;8.67;;;2.03;;
51558;SDS011;61650;48.882;2.092;2023-03-31T07:40:13;8.27;;;1.90;;
51558;SDS011;61650;48.882;2.092;2023-03-31T07:42:45;6.90;;;1.83;;
51558;SDS011;61650;48.882;2.092;2023-03-31T07:45:14;7.90;;;1.93;;
51558;SDS011;61650;48.882;2.092;2023-03-31T07:47:40;6.30;;;2.03;;
51558;SDS011;61650;48.882;2.092;2023-03-31T07:50:07;5.83;;;2.00;;
51558;SDS011;61650;48.882;2.092;2023-03-31T07:52:34;7.13;;;2.00;;
51558;SDS011;61650;48.882;2.092;2023-03-31T07:55:00;5.23;;;2.10;;
51558;SDS011;61650;48.882;2.092;2023-03-31T07:57:25;4.90;;;1.70;;
51558;SDS011;61650;48.882;2.092;2023-03-31T07:59:51;5.43;;;2.10;;
51558;SDS011;61650;48.882;2.092;2023-03-31T08:02:17;4.57;;;1.53;;
51558;SDS011;61650;48.882;2.092;2023-03-31T08:04:43;11.10;;;2.80;;
51558;SDS011;61650;48.882;2.092;2023-03-31T08:07:10;3.70;;;1.70;;
51558;SDS011;61650;48.882;2.092;2023-03-31T08:09:37;5.97;;;2.17;;
51558;SDS011;61650;48.882;2.092;2023-03-31T08:12:06;9.53;;;2.30;;
51558;SDS011;61650;48.882;2.092;2023-03-31T08:14:32;7.47;;;1.70;;
51558;SDS011;61650;48.882;2.092;2023-03-31T08:16:59;6.03;;;1.30;;
51558;SDS011;61650;48.882;2.092;2023-03-31T08:19:25;6.90;;;2.40;;
51558;SDS011;61650;48.882;2.092;2023-03-31T08:21:51;12.37;;;2.40;;
51558;SDS011;61650;48.882;2.092;2023-03-31T08:24:17;7.67;;;1.77;;
51558;SDS011;61650;48.882;2.092;2023-03-31T08:26:43;8.60;;;2.30;;
51558;SDS011;61650;48.882;2.092;2023-03-31T08:29:08;4.03;;;1.60;;
51558;SDS011;61650;48.882;2.092;2023-03-31T08:31:34;4.73;;;1.80;;
51558;SDS011;61650;48.882;2.092;2023-03-31T08:34:00;12.90;;;2.40;;
51558;SDS011;61650;48.882;2.092;2023-03-31T08:36:27;10.10;;;2.47;;
51558;SDS011;61650;48.882;2.092;2023-03-31T08:38:53;7.33;;;2.00;;
51558;SDS011;61650;48.882;2.092;2023-03-31T08:43:48;6.80;;;2.00;;
51558;SDS011;61650;48.882;2.092;2023-03-31T08:46:17;7.70;;;1.80;;
51558;SDS011;61650;48.882;2.092;2023-03-31T08:48:44;5.50;;;1.70;;
51558;SDS011;61650;48.882;2.092;2023-03-31T08:51:16;5.07;;;2.30;;
51558;SDS011;61650;48.882;2.092;2023-03-31T08:53:48;8.43;;;2.10;;
51558;SDS011;61650;48.882;2.092;2023-03-31T08:56:37;5.70;;;1.73;;
51558;SDS011;61650;48.882;2.092;2023-03-31T08:59:05;4.53;;;1.87;;
51558;SDS011;61650;48.882;2.092;2023-03-31T09:01:50;6.37;;;1.70;;
51558;SDS011;61650;48.882;2.092;2023-03-31T09:07:11;3.73;;;1.30;;
51558;SDS011;61650;48.882;2.092;2023-03-31T09:12:48;7.63;;;1.97;;
51558;SDS011;61650;48.882;2.092;2023-03-31T09:18:32;5.07;;;1.77;;
51558;SDS011;61650;48.882;2.092;2023-03-31T09:21:22;6.20;;;1.60;;
51558;SDS011;61650;48.882;2.092;2023-03-31T09:23:55;9.80;;;1.70;;
51558;SDS011;61650;48.882;2.092;2023-03-31T09:29:14;9.17;;;1.80;;
51558;SDS011;61650;48.882;2.092;2023-03-31T09:31:45;12.73;;;3.50;;
51558;SDS011;61650;48.882;2.092;2023-03-31T09:34:12;5.73;;;1.33;;
51558;SDS011;61650;48.882;2.092;2023-03-31T09:36:48;6.83;;;1.80;;
51558;SDS011;61650;48.882;2.092;2023-03-31T09:39:14;6.73;;;1.53;;
51558;SDS011;61650;48.882;2.092;2023-03-31T09:41:42;2.93;;;1.33;;
51558;SDS011;61650;48.882;2.092;2023-03-31T09:44:23;9.87;;;2.07;;
51558;SDS011;61650;48.882;2.092;2023-03-31T09:46:52;6.50;;;1.60;;
51558;SDS011;61650;48.882;2.092;2023-03-31T09:49:22;6.60;;;1.90;;
51558;SDS011;61650;48.882;2.092;2023-03-31T09:57:49;5.03;;;1.20;;
51558;SDS011;61650;48.882;2.092;2023-03-31T10:00:16;8.57;;;1.87;;
51558;SDS011;61650;48.882;2.092;2023-03-31T10:08:11;5.60;;;2.40;;
51558;SDS011;61650;48.882;2.092;2023-03-31T10:10:45;6.33;;;1.60;;
51558;SDS011;61650;48.882;2.092;2023-03-31T10:13:16;9.37;;;1.63;;
51558;SDS011;61650;48.882;2.092;2023-03-31T10:15:44;3.87;;;1.60;;
51558;SDS011;61650;48.882;2.092;2023-03-31T10:18:13;3.90;;;1.80;;
51558;SDS011;61650;48.882;2.092;2023-03-31T10:20:43;4.50;;;1.33;;
51558;SDS011;61650;48.882;2.092;2023-03-31T10:23:15;6.30;;;1.40;;
51558;SDS011;61650;48.882;2.092;2023-03-31T10:25:46;4.87;;;1.27;;
51558;SDS011;61650;48.882;2.092;2023-03-31T10:28:15;2.13;;;1.00;;
51558;SDS011;61650;48.882;2.092;2023-03-31T10:30:46;5.93;;;1.87;;
51558;SDS011;61650;48.882;2.092;2023-03-31T10:33:15;2.67;;;1.10;;
51558;SDS011;61650;48.882;2.092;2023-03-31T10:35:59;6.47;;;1.40;;
51558;SDS011;61650;48.882;2.092;2023-03-31T10:38:35;7.50;;;1.30;;
51558;SDS011;61650;48.882;2.092;2023-03-31T10:41:04;5.60;;;1.10;;
51558;SDS011;61650;48.882;2.092;2023-03-31T10:43:40;3.30;;;1.20;;
51558;SDS011;61650;48.882;2.092;2023-03-31T10:46:08;6.33;;;1.23;;
51558;SDS011;61650;48.882;2.092;2023-03-31T10:48:34;2.40;;;1.03;;
51558;SDS011;61650;48.882;2.092;2023-03-31T10:51:20;3.50;;;1.10;;
51558;SDS011;61650;48.882;2.092;2023-03-31T10:53:53;5.43;;;1.67;;
51558;SDS011;61650;48.882;2.092;2023-03-31T11:00:03;6.60;;;1.63;;
51558;SDS011;61650;48.882;2.092;2023-03-31T11:21:10;1.70;;;1.03;;
51558;SDS011;61650;48.882;2.092;2023-03-31T11:24:09;3.90;;;0.90;;
51558;SDS011;61650;48.882;2.092;2023-03-31T11:29:55;6.10;;;1.70;;
51558;SDS011;61650;48.882;2.092;2023-03-31T11:35:38;4.50;;;1.43;;
51558;SDS011;61650;48.882;2.092;2023-03-31T11:43:46;6.70;;;1.43;;
51558;SDS011;61650;48.882;2.092;2023-03-31T11:49:02;3.13;;;1.43;;
51558;SDS011;61650;48.882;2.092;2023-03-31T11:51:54;3.33;;;1.10;;
51558;SDS011;61650;48.882;2.092;2023-03-31T11:55:11;3.60;;;1.10;;
51558;SDS011;61650;48.882;2.092;2023-03-31T11:57:18;5.00;;;0.90;;
51558;SDS011;61650;48.882;2.092;2023-03-31T11:59:56;6.00;;;1.20;;
51558;SDS011;61650;48.882;2.092;2023-03-31T12:02:42;1.97;;;1.33;;
51558;SDS011;61650;48.882;2.092;2023-03-31T12:05:27;6.13;;;1.07;;
51558;SDS011;61650;48.882;2.092;2023-03-31T12:08:15;2.90;;;0.87;;
51558;SDS011;61650;48.882;2.092;2023-03-31T12:10:53;1.73;;;0.90;;
51558;SDS011;61650;48.882;2.092;2023-03-31T12:16:24;2.40;;;1.43;;
51558;SDS011;61650;48.882;2.092;2023-03-31T12:21:47;6.93;;;1.03;;
51558;SDS011;61650;48.882;2.092;2023-03-31T12:24:26;2.07;;;1.17;;
51558;SDS011;61650;48.882;2.092;2023-03-31T12:27:00;2.10;;;1.10;;
51558;SDS011;61650;48.882;2.092;2023-03-31T12:29:50;2.17;;;0.90;;
51558;SDS011;61650;48.882;2.092;2023-03-31T12:32:24;3.10;;;0.90;;
51558;SDS011;61650;48.882;2.092;2023-03-31T12:35:09;4.20;;;0.73;;
51558;SDS011;61650;48.882;2.092;2023-03-31T12:45:51;2.23;;;1.03;;
51558;SDS011;61650;48.882;2.092;2023-03-31T12:51:35;2.30;;;0.93;;
51558;SDS011;61650;48.882;2.092;2023-03-31T12:59:39;1.93;;;1.03;;
51558;SDS011;61650;48.882;2.092;2023-03-31T13:02:22;5.50;;;1.40;;
51558;SDS011;61650;48.882;2.092;2023-03-31T13:04:49;3.73;;;0.93;;
51558;SDS011;61650;48.882;2.092;2023-03-31T13:09:54;3.17;;;1.10;;
51558;SDS011;61650;48.882;2.092;2023-03-31T13:12:21;4.40;;;1.00;;
51558;SDS011;61650;48.882;2.092;2023-03-31T13:15:12;3.73;;;0.67;;
51558;SDS011;61650;48.882;2.092;2023-03-31T13:17:38;2.80;;;1.10;;
51558;SDS011;61650;48.882;2.092;2023-03-31T13:23:03;4.20;;;2.30;;
51558;SDS011;61650;48.882;2.092;2023-03-31T13:28:12;3.37;;;1.20;;
51558;SDS011;61650;48.882;2.092;2023-03-31T13:35:39;2.23;;;0.70;;
51558;SDS011;61650;48.882;2.092;2023-03-31T13:52:41;2.60;;;0.90;;
51558;SDS011;61650;48.882;2.092;2023-03-31T13:58:08;4.20;;;0.70;;
51558;SDS011;61650;48.882;2.092;2023-03-31T14:01:00;5.63;;;0.90;;
51558;SDS011;61650;48.882;2.092;2023-03-31T14:09:02;1.20;;;0.60;;
51558;SDS011;61650;48.882;2.092;2023-03-31T14:11:32;1.27;;;0.77;;
51558;SDS011;61650;48.882;2.092;2023-03-31T14:14:30;1.30;;;0.90;;
51558;SDS011;61650;48.882;2.092;2023-03-31T14:16:50;1.93;;;0.90;;
51558;SDS011;61650;48.882;2.092;2023-03-31T14:35:39;4.30;;;1.13;;
51558;SDS011;61650;48.882;2.092;2023-03-31T14:38:12;1.03;;;0.73;;
51558;SDS011;61650;48.882;2.092;2023-03-31T14:40:50;1.43;;;0.77;;
51558;SDS011;61650;48.882;2.092;2023-03-31T14:43:20;3.60;;;0.93;;
51558;SDS011;61650;48.882;2.092;2023-03-31T14:46:01;1.83;;;0.80;;
51558;SDS011;61650;48.882;2.092;2023-03-31T14:48:29;1.40;;;0.53;;
51558;SDS011;61650;48.882;2.092;2023-03-31T14:51:07;2.73;;;0.80;;
51558;SDS011;61650;48.882;2.092;2023-03-31T14:53:34;1.63;;;0.77;;
51558;SDS011;61650;48.882;2.092;2023-03-31T14:56:02;1.27;;;0.60;;
51558;SDS011;61650;48.882;2.092;2023-03-31T14:58:35;3.80;;;1.20;;
51558;SDS011;61650;48.882;2.092;2023-03-31T15:01:04;1.60;;;0.70;;
51558;SDS011;61650;48.882;2.092;2023-03-31T15:03:32;3.80;;;0.90;;
51558;SDS011;61650;48.882;2.092;2023-03-31T15:06:00;1.90;;;0.70;;
51558;SDS011;61650;48.882;2.092;2023-03-31T15:08:27;2.87;;;0.80;;
51558;SDS011;61650;48.882;2.092;2023-03-31T15:10:56;1.20;;;0.60;;
51558;SDS011;61650;48.882;2.092;2023-03-31T15:15:52;2.50;;;0.80;;
51558;SDS011;61650;48.882;2.092;2023-03-31T15:18:18;2.70;;;1.00;;
51558;SDS011;61650;48.882;2.092;2023-03-31T15:20:47;4.60;;;1.10;;
51558;SDS011;61650;48.882;2.092;2023-03-31T15:23:22;2.77;;;1.10;;
51558;SDS011;61650;48.882;2.092;2023-03-31T15:25:55;1.80;;;0.77;;
51558;SDS011;61650;48.882;2.092;2023-03-31T15:28:22;1.80;;;1.00;;
51558;SDS011;61650;48.882;2.092;2023-03-31T15:30:51;2.00;;;0.80;;
51558;SDS011;61650;48.882;2.092;2023-03-31T15:33:18;1.20;;;0.90;;
51558;SDS011;61650;48.882;2.092;2023-03-31T15:35:47;3.47;;;0.73;;
51558;SDS011;61650;48.882;2.092;2023-03-31T15:38:13;2.37;;;1.00;;
51558;SDS011;61650;48.882;2.092;2023-03-31T15:40:42;1.93;;;0.70;;
51558;SDS011;61650;48.882;2.092;2023-03-31T15:48:01;2.20;;;0.60;;
51558;SDS011;61650;48.882;2.092;2023-03-31T15:50:28;2.20;;;0.80;;
51558;SDS011;61650;48.882;2.092;2023-03-31T15:52:56;1.10;;;0.70;;
51558;SDS011;61650;48.882;2.092;2023-03-31T15:57:51;1.93;;;0.60;;
51558;SDS011;61650;48.882;2.092;2023-03-31T16:05:48;3.30;;;0.70;;
51558;SDS011;61650;48.882;2.092;2023-03-31T16:08:23;1.63;;;0.70;;
51558;SDS011;61650;48.882;2.092;2023-03-31T16:11:00;4.07;;;0.80;;
51558;SDS011;61650;48.882;2.092;2023-03-31T16:13:28;1.20;;;0.70;;
51558;SDS011;61650;48.882;2.092;2023-03-31T16:15:56;1.83;;;0.70;;
51558;SDS011;61650;48.882;2.092;2023-03-31T16:18:24;3.63;;;0.70;;
51558;SDS011;61650;48.882;2.092;2023-03-31T16:20:57;1.37;;;0.70;;
51558;SDS011;61650;48.882;2.092;2023-03-31T16:23:28;1.57;;;0.80;;
51558;SDS011;61650;48.882;2.092;2023-03-31T16:25:56;3.70;;;1.30;;
51558;SDS011;61650;48.882;2.092;2023-03-31T16:28:23;1.73;;;0.80;;
51558;SDS011;61650;48.882;2.092;2023-03-31T16:30:51;5.60;;;0.80;;
51558;SDS011;61650;48.882;2.092;2023-03-31T16:33:19;1.70;;;0.87;;
51558;SDS011;61650;48.882;2.092;2023-03-31T16:35:47;1.33;;;0.73;;
51558;SDS011;61650;48.882;2.092;2023-03-31T16:38:17;1.83;;;0.80;;
51558;SDS011;61650;48.882;2.092;2023-03-31T16:40:44;2.50;;;0.80;;
51558;SDS011;61650;48.882;2.092;2023-03-31T16:45:42;2.40;;;0.70;;
51558;SDS011;61650;48.882;2.092;2023-03-31T16:48:09;2.70;;;0.87;;
51558;SDS011;61650;48.882;2.092;2023-03-31T16:50:35;2.77;;;1.13;;
51558;SDS011;61650;48.882;2.092;2023-03-31T16:53:01;1.00;;;0.60;;
51558;SDS011;61650;48.882;2.092;2023-03-31T16:55:27;1.80;;;0.87;;
51558;SDS011;61650;48.882;2.092;2023-03-31T16:57:55;4.47;;;1.50;;
51558;SDS011;61650;48.882;2.092;2023-03-31T17:00:23;2.40;;;1.20;;
51558;SDS011;61650;48.882;2.092;2023-03-31T17:02:48;4.30;;;1.10;;
51558;SDS011;61650;48.882;2.092;2023-03-31T17:05:14;2.40;;;0.90;;
51558;SDS011;61650;48.882;2.092;2023-03-31T17:07:40;1.83;;;1.00;;
51558;SDS011;61650;48.882;2.092;2023-03-31T17:10:06;1.97;;;0.90;;
51558;SDS011;61650;48.882;2.092;2023-03-31T17:12:33;2.73;;;0.80;;
51558;SDS011;61650;48.882;2.092;2023-03-31T17:14:58;1.27;;;0.70;;
51558;SDS011;61650;48.882;2.092;2023-03-31T17:17:24;2.27;;;0.80;;
51558;SDS011;61650;48.882;2.092;2023-03-31T17:19:49;1.83;;;0.90;;
51558;SDS011;61650;48.882;2.092;2023-03-31T17:22:16;1.93;;;0.90;;
51558;SDS011;61650;48.882;2.092;2023-03-31T17:24:42;1.60;;;1.10;;
51558;SDS011;61650;48.882;2.092;2023-03-31T17:27:07;3.47;;;1.00;;
51558;SDS011;61650;48.882;2.092;2023-03-31T17:29:33;3.60;;;1.40;;
51558;SDS011;61650;48.882;2.092;2023-03-31T17:31:59;3.70;;;1.00;;
51558;SDS011;61650;48.882;2.092;2023-03-31T17:34:25;4.40;;;1.20;;
51558;SDS011;61650;48.882;2.092;2023-03-31T17:36:53;4.23;;;0.90;;
51558;SDS011;61650;48.882;2.092;2023-03-31T17:39:20;3.93;;;1.30;;
51558;SDS011;61650;48.882;2.092;2023-03-31T17:41:46;3.73;;;0.90;;
51558;SDS011;61650;48.882;2.092;2023-03-31T17:44:12;1.63;;;0.80;;
51558;SDS011;61650;48.882;2.092;2023-03-31T17:46:38;1.30;;;1.00;;
51558;SDS011;61650;48.882;2.092;2023-03-31T17:49:03;2.43;;;0.80;;
51558;SDS011;61650;48.882;2.092;2023-03-31T17:51:29;1.67;;;1.20;;
51558;SDS011;61650;48.882;2.092;2023-03-31T17:53:58;1.87;;;0.70;;
51558;SDS011;61650;48.882;2.092;2023-03-31T17:56:24;3.27;;;0.97;;
51558;SDS011;61650;48.882;2.092;2023-03-31T17:58:50;3.23;;;1.20;;
51558;SDS011;61650;48.882;2.092;2023-03-31T18:01:16;4.00;;;1.13;;
51558;SDS011;61650;48.882;2.092;2023-03-31T18:03:43;2.90;;;1.40;;
51558;SDS011;61650;48.882;2.092;2023-03-31T18:06:10;2.40;;;0.87;;
51558;SDS011;61650;48.882;2.092;2023-03-31T18:08:37;4.80;;;1.10;;
51558;SDS011;61650;48.882;2.092;2023-03-31T18:11:03;2.50;;;0.90;;
51558;SDS011;61650;48.882;2.092;2023-03-31T18:13:31;2.70;;;1.23;;
51558;SDS011;61650;48.882;2.092;2023-03-31T18:15:58;5.10;;;1.13;;
51558;SDS011;61650;48.882;2.092;2023-03-31T18:18:24;3.50;;;1.17;;
51558;SDS011;61650;48.882;2.092;2023-03-31T18:20:52;4.80;;;1.00;;
51558;SDS011;61650;48.882;2.092;2023-03-31T18:23:18;5.93;;;1.33;;
51558;SDS011;61650;48.882;2.092;2023-03-31T18:25:44;5.70;;;1.87;;
51558;SDS011;61650;48.882;2.092;2023-03-31T18:28:13;3.63;;;1.07;;